ěÝzenÝ letovÚho provozu ╚eskÚ republiky
Letiste: LKCV Aktualizace: 17.05.2022 23:59:31  UTC
 METAR LKCV 18.05. 00:00 ...
METAR LKCV 180000Z 19002KT CAVOK 08/08 Q1024 NOSIG RMK BLU BLU=
 TAF LKCV 17.05. 23:00 ...
TAF LKCV 172300Z 1800/1900 VRB02KT CAVOK      TEMPO 1802/1807 4000 MIFG BR      PROB40 TEMPO 1803/1806 0300 FG VV001      BECMG 1806/1808 09006KT=